createdAt,value
2022-07-30T00:02:10.771Z,9.53
2022-07-30T00:06:12.327Z,10.23
2022-07-30T00:10:14.007Z,7.43
2022-07-30T00:14:15.732Z,5.30
2022-07-30T00:18:18.735Z,7.00
2022-07-30T00:22:22.701Z,5.67
2022-07-30T00:26:25.173Z,11.77
2022-07-30T00:30:26.872Z,7.50
2022-07-30T00:34:29.792Z,6.43
2022-07-30T00:38:31.605Z,13.00
2022-07-30T00:43:01.974Z,7.67
2022-07-30T00:47:06.640Z,7.83
2022-07-30T00:51:12.604Z,5.47
2022-07-30T00:55:15.350Z,5.93
2022-07-30T00:59:17.141Z,3.93
2022-07-30T01:03:18.794Z,6.90
2022-07-30T01:07:21.882Z,6.80
2022-07-30T01:11:34.100Z,9.77
2022-07-30T01:15:36.264Z,7.23
2022-07-30T01:19:40.475Z,4.33
2022-07-30T01:23:46.941Z,4.77
2022-07-30T01:27:54.609Z,7.13
2022-07-30T01:31:57.329Z,5.57
2022-07-30T01:36:01.124Z,12.07
2022-07-30T01:40:04.222Z,7.83
2022-07-30T01:44:11.927Z,5.77
2022-07-30T01:48:15.380Z,9.67
2022-07-30T01:52:18.535Z,12.67
2022-07-30T01:56:24.760Z,7.23
2022-07-30T02:00:32.848Z,8.63
2022-07-30T02:04:34.517Z,11.17
2022-07-30T02:08:40.453Z,8.20
2022-07-30T02:12:48.573Z,6.83
2022-07-30T02:16:54.604Z,8.10
2022-07-30T02:21:00.241Z,6.87
2022-07-30T02:25:06.082Z,7.30
2022-07-30T02:29:11.239Z,10.13
2022-07-30T02:33:18.987Z,6.57
2022-07-30T02:37:43.277Z,6.87
2022-07-30T02:41:49.634Z,11.37
2022-07-30T02:45:51.775Z,5.97
2022-07-30T02:49:58.421Z,8.43
2022-07-30T02:54:01.374Z,7.83
2022-07-30T02:58:04.495Z,9.87
2022-07-30T03:02:08.272Z,11.97
2022-07-30T03:06:14.568Z,8.87
2022-07-30T03:10:17.555Z,8.67
2022-07-30T03:14:19.353Z,9.00
2022-07-30T03:18:23.215Z,6.90
2022-07-30T03:22:32.567Z,7.83
2022-07-30T03:26:36.300Z,11.47
2022-07-30T03:30:38.490Z,9.40
2022-07-30T03:34:41.597Z,10.03
2022-07-30T03:38:46.292Z,11.90
2022-07-30T03:42:49.269Z,13.43
2022-07-30T03:46:53.058Z,8.03
2022-07-30T03:50:55.384Z,8.43
2022-07-30T03:54:59.100Z,6.03
2022-07-30T03:59:01.135Z,11.87
2022-07-30T04:03:02.862Z,8.27
2022-07-30T04:07:04.746Z,8.63
2022-07-30T04:11:07.855Z,10.63
2022-07-30T04:16:36.870Z,9.90
2022-07-30T04:19:36.440Z,8.30
2022-07-30T04:24:03.225Z,13.97
2022-07-30T04:28:04.054Z,11.30
2022-07-30T04:32:08.132Z,11.10
2022-07-30T04:36:12.849Z,11.13
2022-07-30T04:40:18.905Z,13.07
2022-07-30T04:44:21.934Z,8.57
2022-07-30T04:48:23.426Z,8.43
2022-07-30T04:52:25.350Z,7.63
2022-07-30T04:56:29.990Z,10.00
2022-07-30T05:00:40.479Z,12.07
2022-07-30T05:04:43.298Z,10.87
2022-07-30T05:08:45.534Z,8.00
2022-07-30T05:12:46.998Z,10.43
2022-07-30T05:16:50.310Z,11.30
2022-07-30T05:20:51.872Z,9.47
2022-07-30T05:24:53.421Z,14.90
2022-07-30T05:28:57.016Z,14.93
2022-07-30T05:33:01.420Z,14.23
2022-07-30T05:37:05.440Z,15.43
2022-07-30T05:41:21.913Z,18.77
2022-07-30T05:45:32.984Z,16.50
2022-07-30T05:49:36.086Z,15.57
2022-07-30T05:53:37.568Z,17.73
2022-07-30T05:57:39.214Z,16.63
2022-07-30T06:01:41.608Z,17.30
2022-07-30T06:05:44.595Z,18.87
2022-07-30T06:09:46.505Z,18.60
2022-07-30T06:13:47.978Z,14.87
2022-07-30T06:17:58.257Z,16.67
2022-07-30T06:22:07.262Z,17.57
2022-07-30T06:26:08.834Z,16.53
2022-07-30T06:30:11.558Z,16.97
2022-07-30T06:34:13.277Z,16.07
2022-07-30T06:38:16.263Z,15.60
2022-07-30T06:42:18.110Z,13.23
2022-07-30T06:46:19.667Z,12.90
2022-07-30T06:50:21.647Z,14.00
2022-07-30T06:54:24.640Z,14.33
2022-07-30T06:58:26.598Z,12.93
2022-07-30T07:02:28.321Z,16.43
2022-07-30T07:06:29.919Z,18.80
2022-07-30T07:10:33.239Z,14.33
2022-07-30T07:14:34.736Z,12.67
2022-07-30T07:18:36.688Z,13.87
2022-07-30T07:22:38.308Z,13.13
2022-07-30T07:26:41.348Z,14.60
2022-07-30T07:30:43.180Z,17.97
2022-07-30T07:34:44.864Z,14.43
2022-07-30T07:38:46.524Z,13.43
2022-07-30T07:42:49.327Z,14.37
2022-07-30T07:46:50.847Z,13.03
2022-07-30T07:50:54.150Z,15.13
2022-07-30T07:54:58.591Z,11.43
2022-07-30T07:59:02.085Z,15.10
2022-07-30T08:03:05.797Z,11.27
2022-07-30T08:07:07.349Z,11.90
2022-07-30T08:11:08.871Z,14.03
2022-07-30T08:15:12.132Z,13.17
2022-07-30T08:19:14.135Z,13.23
2022-07-30T08:23:15.812Z,12.50
2022-07-30T08:27:17.744Z,14.40
2022-07-30T08:31:20.598Z,14.73
2022-07-30T08:35:22.128Z,20.00
2022-07-30T08:39:23.750Z,18.27
2022-07-30T08:43:25.631Z,13.43
2022-07-30T08:47:32.137Z,12.80
2022-07-30T08:51:35.167Z,9.97
2022-07-30T08:55:36.783Z,11.00
2022-07-30T08:59:52.874Z,14.93
2022-07-30T09:04:01.861Z,12.50
2022-07-30T09:08:08.528Z,12.53
2022-07-30T09:12:33.243Z,13.20
2022-07-30T09:16:35.171Z,12.30
2022-07-30T09:20:38.388Z,11.47
2022-07-30T09:24:42.596Z,15.40
2022-07-30T09:28:44.104Z,13.00
2022-07-30T09:32:50.590Z,17.87
2022-07-30T09:36:53.477Z,19.33
2022-07-30T09:40:57.636Z,9.30
2022-07-30T09:45:06.014Z,14.93
2022-07-30T09:49:14.308Z,13.47
2022-07-30T09:53:17.525Z,12.90
2022-07-30T09:57:25.787Z,15.37
2022-07-30T10:01:56.307Z,12.17
2022-07-30T10:06:02.973Z,13.00
2022-07-30T10:10:07.897Z,11.03
2022-07-30T10:14:10.542Z,11.57
2022-07-30T10:18:12.663Z,12.57
2022-07-30T10:22:18.010Z,12.20
2022-07-30T10:26:22.319Z,10.30
2022-07-30T10:30:27.698Z,8.60
2022-07-30T10:34:34.218Z,11.07
2022-07-30T10:38:41.270Z,8.87
2022-07-30T10:43:01.934Z,8.20
2022-07-30T10:47:08.268Z,8.07
2022-07-30T10:51:12.178Z,9.93
2022-07-30T10:55:38.718Z,10.63
2022-07-30T11:00:15.323Z,8.87
2022-07-30T11:04:20.395Z,8.83
2022-07-30T11:08:36.850Z,9.32
2022-07-30T11:12:55.465Z,8.45
2022-07-30T11:17:01.254Z,11.27
2022-07-30T11:21:20.651Z,8.43
2022-07-30T11:25:51.124Z,5.35
2022-07-30T11:29:53.938Z,6.78
2022-07-30T11:34:26.638Z,10.07
2022-07-30T11:38:53.475Z,5.30
2022-07-30T11:43:15.657Z,6.80
2022-07-30T11:47:18.345Z,7.03
2022-07-30T11:51:20.591Z,8.07
2022-07-30T11:55:27.377Z,4.80
2022-07-30T11:59:28.995Z,8.85
2022-07-30T12:03:31.600Z,5.55
2022-07-30T12:07:33.106Z,5.47
2022-07-30T12:11:36.046Z,6.40
2022-07-30T12:15:39.281Z,5.82
2022-07-30T12:19:48.090Z,4.85
2022-07-30T12:23:57.309Z,7.35
2022-07-30T12:28:00.311Z,4.35
2022-07-30T12:32:02.205Z,8.43
2022-07-30T12:36:04.206Z,5.13
2022-07-30T12:40:14.362Z,7.50
2022-07-30T12:44:37.014Z,7.25
2022-07-30T12:48:56.158Z,3.30
2022-07-30T12:52:57.930Z,4.43
2022-07-30T12:57:02.204Z,4.63
2022-07-30T13:01:07.418Z,4.00
2022-07-30T13:05:11.387Z,4.40
2022-07-30T13:09:18.870Z,4.50
2022-07-30T13:13:20.511Z,4.47
2022-07-30T13:17:23.385Z,2.53
2022-07-30T13:21:25.046Z,7.45
2022-07-30T13:25:26.690Z,4.00
2022-07-30T13:29:41.942Z,4.53
2022-07-30T13:33:44.932Z,6.95
2022-07-30T13:37:46.397Z,3.55
2022-07-30T13:41:48.481Z,6.15
2022-07-30T13:45:50.954Z,3.50
2022-07-30T13:49:53.871Z,3.58
2022-07-30T13:53:55.466Z,3.30
2022-07-30T13:57:57.262Z,3.78
2022-07-30T14:02:00.661Z,4.28
2022-07-30T14:06:11.027Z,4.90
2022-07-30T14:10:12.913Z,2.92
2022-07-30T14:14:14.353Z,4.05
2022-07-30T14:18:15.957Z,4.07
2022-07-30T14:22:18.909Z,5.82
2022-07-30T14:26:20.381Z,3.40
2022-07-30T14:30:21.893Z,3.45
2022-07-30T14:34:23.709Z,3.33
2022-07-30T14:38:26.712Z,2.65
2022-07-30T14:42:28.217Z,6.22
2022-07-30T14:46:29.650Z,5.55
2022-07-30T14:50:31.294Z,5.78
2022-07-30T14:54:34.337Z,4.82
2022-07-30T14:58:36.007Z,3.55
2022-07-30T15:02:37.497Z,5.30
2022-07-30T15:06:39.113Z,2.75
2022-07-30T15:10:42.161Z,4.13
2022-07-30T15:14:45.480Z,3.63
2022-07-30T15:18:47.462Z,2.38
2022-07-30T15:22:49.153Z,5.15
2022-07-30T15:26:52.012Z,4.13
2022-07-30T15:30:53.765Z,2.35
2022-07-30T15:34:55.296Z,3.05
2022-07-30T15:38:56.914Z,3.58
2022-07-30T15:42:59.758Z,3.45
2022-07-30T15:47:01.778Z,6.47
2022-07-30T15:51:04.986Z,10.80
2022-07-30T15:55:07.543Z,5.72
2022-07-30T15:59:10.446Z,3.45
2022-07-30T16:03:12.864Z,6.70
2022-07-30T16:07:14.532Z,1.92
2022-07-30T16:11:16.173Z,2.97
2022-07-30T16:15:19.002Z,3.22
2022-07-30T16:19:20.560Z,2.92
2022-07-30T16:23:22.079Z,5.32
2022-07-30T16:27:23.744Z,3.47
2022-07-30T16:31:26.834Z,4.93
2022-07-30T16:35:28.306Z,1.80
2022-07-30T16:39:29.774Z,3.75
2022-07-30T16:43:31.626Z,5.05
2022-07-30T16:47:34.481Z,4.30
2022-07-30T16:51:36.288Z,3.85
2022-07-30T16:55:39.161Z,3.65
2022-07-30T16:59:43.555Z,1.80
2022-07-30T17:03:46.819Z,3.85
2022-07-30T17:07:48.360Z,4.50
2022-07-30T17:11:52.213Z,4.93
2022-07-30T17:15:54.117Z,1.98
2022-07-30T17:19:57.127Z,3.00
2022-07-30T17:23:58.866Z,3.67
2022-07-30T17:28:00.783Z,3.53
2022-07-30T17:32:03.188Z,6.00
2022-07-30T17:36:06.502Z,3.33
2022-07-30T17:40:30.225Z,3.23
2022-07-30T17:44:31.323Z,4.90
2022-07-30T17:48:33.269Z,3.07
2022-07-30T17:52:36.285Z,3.30
2022-07-30T17:56:38.059Z,3.13
2022-07-30T18:00:40.014Z,5.93
2022-07-30T18:04:41.607Z,7.17
2022-07-30T18:08:44.707Z,4.17
2022-07-30T18:12:48.861Z,3.43
2022-07-30T18:16:51.652Z,2.77
2022-07-30T18:20:53.168Z,6.10
2022-07-30T18:24:56.065Z,2.50
2022-07-30T18:28:57.577Z,5.27
2022-07-30T18:32:59.713Z,1.80
2022-07-30T18:37:01.253Z,12.77
2022-07-30T18:41:04.460Z,3.43
2022-07-30T18:45:07.010Z,3.43
2022-07-30T18:49:33.841Z,5.67
2022-07-30T18:53:30.078Z,4.90
2022-07-30T18:57:33.035Z,2.97
2022-07-30T19:01:34.567Z,2.73
2022-07-30T19:05:36.177Z,5.27
2022-07-30T19:09:37.933Z,3.13
2022-07-30T19:13:40.956Z,5.47
2022-07-30T19:17:45.603Z,4.77
2022-07-30T19:21:48.637Z,3.77
2022-07-30T19:25:50.330Z,3.47
2022-07-30T19:29:53.325Z,3.03
2022-07-30T19:33:54.817Z,3.73
2022-07-30T19:37:56.964Z,2.90
2022-07-30T19:41:58.425Z,3.10
2022-07-30T19:46:01.313Z,2.43
2022-07-30T19:50:02.888Z,3.17
2022-07-30T19:54:04.575Z,5.07
2022-07-30T19:58:16.414Z,3.87
2022-07-30T20:02:30.589Z,5.17
2022-07-30T20:06:32.305Z,12.70
2022-07-30T20:10:34.998Z,13.90
2022-07-30T20:14:36.628Z,3.87
2022-07-30T20:18:46.582Z,2.67
2022-07-30T20:22:49.791Z,4.97
2022-07-30T20:26:51.304Z,3.67
2022-07-30T20:30:53.013Z,4.00
2022-07-30T20:34:55.904Z,5.17
2022-07-30T20:38:57.452Z,10.33
2022-07-30T20:43:00.020Z,11.23
2022-07-30T20:47:08.388Z,5.83
2022-07-30T20:51:11.780Z,4.73
2022-07-30T20:55:14.546Z,4.53
2022-07-30T20:59:18.012Z,4.40
2022-07-30T21:03:23.411Z,3.50
2022-07-30T21:07:36.792Z,3.57
2022-07-30T21:11:39.436Z,9.33
2022-07-30T21:16:01.944Z,4.23
2022-07-30T21:20:05.720Z,4.00
2022-07-30T21:24:12.015Z,2.43
2022-07-30T21:32:35.050Z,2.83
2022-07-30T21:36:37.215Z,4.00
2022-07-30T21:40:41.019Z,6.37
2022-07-30T21:44:42.546Z,4.83
2022-07-30T21:48:44.998Z,6.83
2022-07-30T21:52:46.791Z,2.83
2022-07-30T21:56:49.574Z,2.33
2022-07-30T22:01:04.177Z,3.13
2022-07-30T22:05:19.242Z,5.67
2022-07-30T22:09:33.393Z,3.07
2022-07-30T22:13:53.473Z,3.67
2022-07-30T22:17:58.847Z,5.17
2022-07-30T22:22:25.944Z,3.23
2022-07-30T22:26:26.486Z,3.03
2022-07-30T22:30:31.029Z,4.00
2022-07-30T22:34:32.743Z,3.70
2022-07-30T22:38:34.413Z,4.30
2022-07-30T22:42:49.583Z,5.00
2022-07-30T22:46:56.511Z,5.30
2022-07-30T22:50:58.768Z,3.50
2022-07-30T22:55:09.105Z,6.17
2022-07-30T22:59:12.474Z,3.40
2022-07-30T23:03:17.569Z,5.20
2022-07-30T23:07:19.978Z,3.73
2022-07-30T23:11:21.405Z,3.33
2022-07-30T23:12:27.316Z,3.50
2022-07-30T23:15:23.816Z,2.20
2022-07-30T23:19:26.628Z,3.07
2022-07-30T23:23:28.248Z,5.97
2022-07-30T23:27:32.709Z,2.70
2022-07-30T23:31:34.625Z,4.63
2022-07-30T23:35:37.464Z,5.83
2022-07-30T23:39:38.961Z,4.70
2022-07-30T23:43:40.503Z,3.90
2022-07-30T23:48:02.106Z,3.07
2022-07-30T23:52:05.579Z,2.27
2022-07-30T23:56:13.140Z,5.23
